Share

Ashby, MN

Elbow Lake (KY63) Elev 1204 ft | 45.99 °N, 95.99 °W | Change Station

Current weather conditions updated 8 minutes ago

Clear
Clear
42 °F
Feels Like 38 °F
N
6
Wind Variable Wind from NNW
Sunrise 6:33 AM
Sunset 8:13 PM
Moon Waning Gibbous

Tomorrow is forecast to be Warmer than today. Periods of late night light rain tomorrow night.

Pressure 30.28 in
Visibility 10.0 miles
Clouds Clear
Windchill 38 °F
Dew Point 14 °F
Humidity 32%
Rainfall 0.00 in
Snow Depth Not available.
UV 6 out of 16
Pollen 8.00 out of 12
Air Quality Not available.
Flu Activity Sporadic
METAR KY63 172052Z AUTO 34005KT 10SM CLR 06/M10 A3028 RMK AO2 T00561099

More Conditions Fewer Conditions

Pressure 30.28 in
Visibility 10.0 miles
Clouds Clear
Windchill 38 °F
Dew Point 14 °F
Humidity 32%
Rainfall 0.00 in
Snow Depth Not available.
UV 6 out of 16
Pollen 8.00 out of 12
Air Quality Not available.
Flu Activity Sporadic
METAR KY63 172052Z AUTO 34005KT 10SM CLR 06/M10 A3028 RMK AO2 T00561099

More Conditions Fewer Conditions

10-Day Forecast

Almanac

Astronomy

Apr. 17, 2014 Rise Set
Actual Time 6:33 AM CDT 8:13 PM CDT
Civil Twilight 6:01 AM CDT 8:44 PM CDT
Nautical Twilight 5:23 AM CDT 9:23 PM CDT
Astronomical Twilight 4:41 AM CDT 10:05 PM CDT
Moon 11:06 PM CDT 8:00 AM CDT
Length of Visible Light 14h 43m
Length of Day
13h 39m
Tomorrow will be 3m 6s longer.
Waning Gibbous, 92% of the Moon is Illuminated
Today
Waning Gibbous
Apr 22
Last Quarter
Apr 29
New
May 6
First Quarter
May 14
Full

Today's Extremes

State Highs State Lows

Community

  • Morning Light
    Morning Light
  • New Day
    New Day
  • Lake Michigan Sunrise
    Lake Michigan Sunrise
  • sunset from izmir, narlıdere
    sunset from izmir, narlıdere
  • oregon cherry
    oregon cherry

WunderPhotos

Upload Photos

1,702,123 photos uploaded!

Nearby

Snow Depth

Station Depth Elevation
No new snow has been reported.

Coastal Water Temperatures

Place Temperature
No Stations Reporting

Earthquake Activity

City Distance Mag. Time & Date
No recent earthquake activity has been reported nearby.
Minimum magnitude displayed is 2.5.

Nearby Weather Stations

Station Location Temp. Windchill Dew Point Humidity Wind Precip. Elev Updated Type
Gardonville Co-op Telephone Assn, Brandon, MN 38.9 °F 39 °F 17 °F 41% NE  at  2.0 mph 0.00 in / hr 1378 ft 4:00 PM CDT Rapid Fire

Show More Stations Show Fewer Stations

What do you think?

We're not finished. Please let us know what you like, what you don't like, and what you are still missing.